createdAt,value
2023-02-26T00:02:11.177Z,22.27
2023-02-26T00:07:13.868Z,27.90
2023-02-26T00:12:16.922Z,18.33
2023-02-26T00:17:31.344Z,24.55
2023-02-26T00:22:34.284Z,26.27
2023-02-26T00:27:37.365Z,25.25
2023-02-26T00:32:40.610Z,21.73
2023-02-26T00:42:58.162Z,30.45
2023-02-26T00:48:19.279Z,27.48
2023-02-26T00:54:14.902Z,25.40
2023-02-26T00:59:18.485Z,23.75
2023-02-26T01:04:23.457Z,30.98
2023-02-26T01:09:34.420Z,20.98
2023-02-26T01:14:39.544Z,24.10
2023-02-26T01:19:55.258Z,27.08
2023-02-26T01:25:08.183Z,25.60
2023-02-26T01:35:40.881Z,25.60
2023-02-26T01:41:02.301Z,26.17
2023-02-26T01:46:25.504Z,25.75
2023-02-26T01:51:49.512Z,24.80
2023-02-26T01:57:09.956Z,25.20
2023-02-26T02:02:14.195Z,25.20
2023-02-26T02:07:19.024Z,25.05
2023-02-26T02:12:37.483Z,25.60
2023-02-26T02:17:56.855Z,25.85
2023-02-26T02:23:11.307Z,24.00
2023-02-26T02:28:36.964Z,21.98
2023-02-26T02:34:06.130Z,23.40
2023-02-26T02:39:23.867Z,27.77
2023-02-26T02:44:27.927Z,25.85
2023-02-26T02:50:05.841Z,23.83
2023-02-26T02:55:20.630Z,23.00
2023-02-26T03:00:24.582Z,26.23
2023-02-26T03:12:05.023Z,23.35
2023-02-26T03:17:41.840Z,21.27
2023-02-26T03:22:57.689Z,21.10
2023-02-26T03:28:21.551Z,21.00
2023-02-26T03:33:47.952Z,21.95
2023-02-26T03:39:02.045Z,24.35
2023-02-26T03:44:28.648Z,24.50
2023-02-26T03:49:35.243Z,27.55
2023-02-26T03:54:47.984Z,25.42
2023-02-26T04:00:10.996Z,22.80
2023-02-26T04:05:23.514Z,22.02
2023-02-26T04:10:33.821Z,20.83
2023-02-26T04:15:36.764Z,23.40
2023-02-26T04:20:40.075Z,19.92
2023-02-26T04:25:42.886Z,22.07
2023-02-26T04:30:47.133Z,23.88
2023-02-26T04:35:50.908Z,21.85
2023-02-26T04:40:53.914Z,22.15
2023-02-26T04:45:57.182Z,21.92
2023-02-26T04:50:59.967Z,21.57
2023-02-26T04:56:02.851Z,22.30
2023-02-26T05:01:06.199Z,23.87
2023-02-26T05:06:09.066Z,16.83
2023-02-26T05:11:12.864Z,17.10
2023-02-26T05:16:15.625Z,19.43
2023-02-26T05:21:18.711Z,20.77
2023-02-26T05:26:21.584Z,20.97
2023-02-26T05:31:24.341Z,23.63
2023-02-26T05:36:27.744Z,11.63
2023-02-26T05:41:30.613Z,19.87
2023-02-26T05:46:33.372Z,18.95
2023-02-26T05:51:36.186Z,18.00
2023-02-26T05:56:38.874Z,18.33
2023-02-26T06:01:43.081Z,22.85
2023-02-26T06:06:45.836Z,21.30
2023-02-26T06:11:48.583Z,22.70
2023-02-26T06:16:51.213Z,22.73
2023-02-26T06:21:54.137Z,16.70
2023-02-26T06:26:56.968Z,22.95
2023-02-26T06:32:00.076Z,13.70
2023-02-26T06:37:03.077Z,17.10
2023-02-26T06:42:06.052Z,20.80
2023-02-26T06:47:08.796Z,18.98
2023-02-26T06:52:11.548Z,17.67
2023-02-26T06:57:17.250Z,18.15
2023-02-26T07:02:22.576Z,18.25
2023-02-26T07:07:25.322Z,14.07
2023-02-26T07:12:31.143Z,20.77
2023-02-26T07:17:34.570Z,19.42
2023-02-26T07:22:38.421Z,19.73
2023-02-26T07:27:43.722Z,19.15
2023-02-26T07:32:46.827Z,18.15
2023-02-26T07:37:49.502Z,18.90
2023-02-26T07:42:52.306Z,17.15
2023-02-26T07:47:55.258Z,18.33
2023-02-26T07:52:57.991Z,19.23
2023-02-26T07:58:00.920Z,17.17
2023-02-26T08:03:03.704Z,17.15
2023-02-26T08:08:06.489Z,15.88
2023-02-26T08:13:09.306Z,18.73
2023-02-26T08:18:12.503Z,13.60
2023-02-26T08:23:15.209Z,18.48
2023-02-26T08:28:17.994Z,22.42
2023-02-26T08:33:20.834Z,19.63
2023-02-26T08:38:23.574Z,17.25
2023-02-26T08:43:26.463Z,14.93
2023-02-26T08:48:29.320Z,16.35
2023-02-26T08:53:32.354Z,19.92
2023-02-26T08:58:35.170Z,17.65
2023-02-26T09:03:37.909Z,16.10
2023-02-26T09:08:40.583Z,15.98
2023-02-26T09:13:43.367Z,15.30
2023-02-26T09:18:46.130Z,12.95
2023-02-26T09:23:48.977Z,15.93
2023-02-26T09:28:51.901Z,14.38
2023-02-26T09:33:54.700Z,14.32
2023-02-26T09:38:57.369Z,11.43
2023-02-26T09:44:25.152Z,19.08
2023-02-26T09:49:31.694Z,15.63
2023-02-26T09:54:42.290Z,17.40
2023-02-26T09:59:45.057Z,15.73
2023-02-26T10:05:12.578Z,12.00
2023-02-26T10:10:40.028Z,14.75
2023-02-26T10:15:43.962Z,14.50
2023-02-26T10:21:12.964Z,16.00
2023-02-26T10:26:45.102Z,13.25
2023-02-26T10:32:20.149Z,13.02
2023-02-26T10:37:44.725Z,13.25
2023-02-26T10:43:28.318Z,14.20
2023-02-26T10:53:43.731Z,13.18
2023-02-26T10:58:46.833Z,14.95
2023-02-26T11:03:54.691Z,11.23
2023-02-26T11:08:59.337Z,18.30
2023-02-26T11:14:02.699Z,15.50
2023-02-26T11:19:06.290Z,13.30
2023-02-26T11:24:24.550Z,17.67
2023-02-26T11:29:27.298Z,11.88
2023-02-26T11:34:30.601Z,12.95
2023-02-26T11:39:39.530Z,19.60
2023-02-26T11:44:46.482Z,12.45
2023-02-26T11:49:56.064Z,13.13
2023-02-26T11:55:04.230Z,15.52
2023-02-26T12:00:19.623Z,19.63
2023-02-26T12:05:22.983Z,13.82
2023-02-26T12:10:55.336Z,10.97
2023-02-26T12:16:04.767Z,13.85
2023-02-26T12:21:13.492Z,15.05
2023-02-26T12:26:35.849Z,15.45
2023-02-26T12:32:00.198Z,14.75
2023-02-26T12:37:16.384Z,16.85
2023-02-26T12:42:44.287Z,16.23
2023-02-26T12:48:11.173Z,16.92
2023-02-26T12:53:35.682Z,19.73
2023-02-26T12:59:01.225Z,19.05
2023-02-26T13:04:34.924Z,19.15
2023-02-26T13:09:56.457Z,18.77
2023-02-26T13:15:26.605Z,21.55
2023-02-26T13:20:29.854Z,17.77
2023-02-26T13:25:39.164Z,16.83
2023-02-26T13:30:48.579Z,17.40
2023-02-26T13:35:53.363Z,22.67
2023-02-26T13:41:13.197Z,18.55
2023-02-26T13:46:18.964Z,20.52
2023-02-26T13:51:41.060Z,17.05
2023-02-26T13:57:08.218Z,20.33
2023-02-26T14:02:19.798Z,19.67
2023-02-26T14:07:54.109Z,22.52
2023-02-26T14:13:11.510Z,23.08
2023-02-26T14:18:27.829Z,21.10
2023-02-26T14:23:37.838Z,22.63
2023-02-26T14:28:49.748Z,19.92
2023-02-26T14:34:14.226Z,17.35
2023-02-26T14:39:36.452Z,24.20
2023-02-26T14:44:43.685Z,19.48
2023-02-26T14:49:59.721Z,21.58
2023-02-26T14:55:24.006Z,25.02
2023-02-26T15:00:45.852Z,24.60
2023-02-26T15:06:20.012Z,17.38
2023-02-26T15:11:51.359Z,25.98
2023-02-26T15:17:15.730Z,22.35
2023-02-26T15:22:54.642Z,20.25
2023-02-26T15:27:59.462Z,21.25
2023-02-26T15:33:05.840Z,26.88
2023-02-26T15:38:09.895Z,24.00
2023-02-26T15:43:26.232Z,23.95
2023-02-26T15:48:42.665Z,19.67
2023-02-26T15:53:48.449Z,18.60
2023-02-26T15:58:58.464Z,19.38
2023-02-26T16:04:02.958Z,16.52
2023-02-26T16:09:07.737Z,18.20
2023-02-26T16:14:22.386Z,20.10
2023-02-26T16:19:39.690Z,20.27
2023-02-26T16:24:42.945Z,21.90
2023-02-26T16:29:52.135Z,22.50
2023-02-26T16:34:57.774Z,19.23
2023-02-26T16:40:20.610Z,21.75
2023-02-26T16:45:35.358Z,21.10
2023-02-26T16:50:38.718Z,23.70
2023-02-26T16:55:42.343Z,24.60
2023-02-26T17:00:46.750Z,23.33
2023-02-26T17:06:03.026Z,19.77
2023-02-26T17:11:10.652Z,21.27
2023-02-26T17:16:14.419Z,20.42
2023-02-26T17:21:17.940Z,20.50
2023-02-26T17:26:20.906Z,20.67
2023-02-26T17:31:23.699Z,22.42
2023-02-26T17:36:27.058Z,20.97
2023-02-26T17:41:30.910Z,22.75
2023-02-26T17:46:33.567Z,20.45
2023-02-26T17:51:36.398Z,23.95
2023-02-26T17:56:39.201Z,19.55
2023-02-26T18:01:42.519Z,21.75
2023-02-26T18:06:45.664Z,19.45
2023-02-26T18:11:48.332Z,18.50
2023-02-26T18:16:51.275Z,20.27
2023-02-26T18:21:54.069Z,20.83
2023-02-26T18:26:56.918Z,23.90
2023-02-26T18:32:00.820Z,20.05
2023-02-26T18:42:08.118Z,19.00
2023-02-26T18:47:11.806Z,23.77
2023-02-26T18:52:14.630Z,18.48
2023-02-26T18:57:17.653Z,20.58
2023-02-26T19:02:40.915Z,17.67
2023-02-26T19:07:43.768Z,16.48
2023-02-26T19:12:46.713Z,19.30
2023-02-26T19:17:49.504Z,19.83
2023-02-26T19:22:52.155Z,21.38
2023-02-26T19:27:56.105Z,17.45
2023-02-26T19:32:59.033Z,18.05
2023-02-26T19:38:01.882Z,21.52
2023-02-26T19:43:04.626Z,17.15
2023-02-26T19:48:07.331Z,23.20
2023-02-26T19:53:10.152Z,19.27
2023-02-26T19:58:14.487Z,17.17
2023-02-26T20:03:17.354Z,18.80
2023-02-26T20:08:22.017Z,18.90
2023-02-26T20:13:30.103Z,18.83
2023-02-26T20:18:33.422Z,18.27
2023-02-26T20:23:38.015Z,16.13
2023-02-26T20:28:41.670Z,17.10
2023-02-26T20:33:44.390Z,17.52
2023-02-26T20:38:47.204Z,23.02
2023-02-26T20:43:49.945Z,23.05
2023-02-26T20:48:52.614Z,22.17
2023-02-26T20:53:55.430Z,20.38
2023-02-26T20:58:58.164Z,22.73
2023-02-26T21:04:01.262Z,18.98
2023-02-26T21:09:05.611Z,16.45
2023-02-26T21:14:10.092Z,17.83
2023-02-26T21:19:12.931Z,18.17
2023-02-26T21:24:15.635Z,21.08
2023-02-26T21:29:18.743Z,17.05
2023-02-26T21:34:33.400Z,19.20
2023-02-26T21:39:38.474Z,20.75
2023-02-26T21:44:41.373Z,16.85
2023-02-26T21:49:44.574Z,17.60
2023-02-26T21:54:47.402Z,18.33
2023-02-26T21:59:50.140Z,16.45
2023-02-26T22:04:52.825Z,19.35
2023-02-26T22:09:55.528Z,16.50
2023-02-26T22:14:58.261Z,16.73
2023-02-26T22:20:00.971Z,23.05
2023-02-26T22:25:06.292Z,24.23
2023-02-26T22:30:09.899Z,19.73
2023-02-26T22:35:14.266Z,15.65
2023-02-26T22:40:17.064Z,18.75
2023-02-26T22:45:20.148Z,19.92
2023-02-26T22:50:22.853Z,17.67
2023-02-26T22:55:25.686Z,18.90
2023-02-26T23:00:29.024Z,20.17
2023-02-26T23:05:31.858Z,16.20
2023-02-26T23:10:34.579Z,17.58
2023-02-26T23:15:37.859Z,22.13
2023-02-26T23:20:40.632Z,19.33
2023-02-26T23:25:44.082Z,19.58
2023-02-26T23:30:46.980Z,21.20
2023-02-26T23:35:50.063Z,20.83
2023-02-26T23:40:52.878Z,21.10
2023-02-26T23:45:55.644Z,17.30
2023-02-26T23:50:58.368Z,20.52
2023-02-26T23:56:01.537Z,25.15
